TimeMDT,TemperatureF,Dew PointF,Humidity,Sea Level PressureIn,VisibilityMPH,Wind Direction,Wind SpeedMPH,Gust SpeedMPH,PrecipitationIn,Events,Conditions,WindDirDegrees,DateUTC
12:15 AM,8.6,5.0,85,-9999,0.2,North,36.8,47.2,N/A,Snow,Heavy Snow,360,2013-04-09 06:15:00
12:35 AM,8.6,5.0,85,-9999,0.2,North,46.0,56.4,N/A,Snow,Heavy Snow,350,2013-04-09 06:35:00
12:55 AM,8.6,5.0,85,-9999,0.2,North,44.9,56.4,N/A,Snow,Heavy Snow,350,2013-04-09 06:55:00
1:15 AM,8.6,3.2,79,-9999,0.2,North,35.7,56.4,N/A,Snow,Snow,360,2013-04-09 07:15:00
1:35 AM,6.8,3.2,85,-9999,0.5,North,27.6,52.9,N/A,Snow,Light Snow,360,2013-04-09 07:35:00
2:15 AM,6.8,3.2,85,-9999,0.2,North,41.4,58.7,N/A,Snow,Snow,360,2013-04-09 08:15:00
2:35 AM,6.8,3.2,85,-9999,0.5,North,34.5,46.0,N/A,Snow,Snow,360,2013-04-09 08:35:00
2:55 AM,6.8,3.2,85,-9999,0.2,North,36.8,48.3,N/A,Snow,Snow,360,2013-04-09 08:55:00
3:15 AM,6.8,3.2,85,-9999,0.2,North,34.5,51.8,N/A,Snow,Heavy Snow,360,2013-04-09 09:15:00
3:35 AM,6.8,3.2,85,-9999,0.2,North,34.5,46.0,N/A,Snow,Snow,360,2013-04-09 09:35:00
3:55 AM,5.0,3.2,92,-9999,0.2,North,38.0,49.5,N/A,Snow,Heavy Snow,360,2013-04-09 09:55:00
4:35 AM,5.0,3.2,92,-9999,0.2,North,28.8,44.9,N/A,Snow,Snow,10,2013-04-09 10:35:00
4:55 AM,5.0,3.2,92,-9999,0.2,North,29.9,39.1,N/A,Snow,Snow,360,2013-04-09 10:55:00
5:15 AM,5.0,3.2,92,-9999,0.2,North,32.2,44.9,N/A,Snow,Snow,360,2013-04-09 11:15:00
5:35 AM,5.0,1.4,85,-9999,0.2,North,25.3,39.1,N/A,Snow,Snow,360,2013-04-09 11:35:00
5:55 AM,5.0,1.4,85,-9999,0.5,North,28.8,47.2,N/A,Snow,Snow,360,2013-04-09 11:55:00
6:15 AM,5.0,1.4,85,-9999,0.2,North,36.8,48.3,N/A,Snow,Snow,360,2013-04-09 12:15:00
6:35 AM,5.0,1.4,85,-9999,0.2,North,33.4,46.0,N/A,Snow,Snow,360,2013-04-09 12:35:00
6:55 AM,5.0,1.4,85,-9999,0.2,North,38.0,48.3,N/A,Snow,Heavy Snow,360,2013-04-09 12:55:00
7:15 AM,5.0,1.4,85,-9999,0.2,North,26.5,46.0,N/A,Snow,Heavy Snow,360,2013-04-09 13:15:00
7:35 AM,5.0,1.4,85,-9999,0.2,North,32.2,42.6,N/A,Snow,Heavy Snow,360,2013-04-09 13:35:00
7:55 AM,5.0,1.4,85,-9999,0.2,North,38.0,48.3,N/A,Snow,Heavy Snow,360,2013-04-09 13:55:00
8:15 AM,5.0,1.4,85,-9999,0.2,North,38.0,48.3,N/A,Snow,Heavy Snow,360,2013-04-09 14:15:00
8:35 AM,5.0,1.4,85,-9999,0.2,North,34.5,51.8,N/A,Snow,Snow,360,2013-04-09 14:35:00
8:55 AM,5.0,1.4,85,-9999,0.2,North,31.1,55.2,N/A,Snow,Heavy Snow,10,2013-04-09 14:55:00
9:15 AM,5.0,1.4,85,-9999,0.2,North,41.4,54.1,N/A,Snow,Heavy Snow,360,2013-04-09 15:15:00
9:35 AM,5.0,3.2,92,-9999,0.2,North,27.6,42.6,N/A,Snow,Heavy Snow,10,2013-04-09 15:35:00
9:55 AM,5.0,1.4,85,-9999,0.2,North,40.3,51.8,N/A,Snow,Light Snow,360,2013-04-09 15:55:00
10:15 AM,8.6,3.2,79,-9999,0.5,North,28.8,48.3,N/A,Snow,Light Snow,360,2013-04-09 16:15:00
10:35 AM,8.6,3.2,79,-9999,0.5,North,29.9,43.7,N/A,Snow,Light Snow,360,2013-04-09 16:35:00
10:55 AM,8.6,3.2,79,-9999,0.5,North,32.2,42.6,N/A,Snow,Light Snow,360,2013-04-09 16:55:00
11:15 AM,8.6,5.0,85,-9999,0.2,North,28.8,48.3,N/A,Snow,Light Snow,360,2013-04-09 17:15:00
11:35 AM,8.6,3.2,79,-9999,0.5,North,33.4,46.0,N/A,Snow,Light Snow,360,2013-04-09 17:35:00
11:55 AM,10.4,5.0,79,-9999,1.0,North,29.9,35.7,N/A,Snow,Light Snow,360,2013-04-09 17:55:00
12:15 PM,10.4,5.0,79,-9999,0.8,North,32.2,41.4,N/A,Snow,Light Snow,360,2013-04-09 18:15:00
12:35 PM,10.4,5.0,79,-9999,1.0,North,34.5,44.9,N/A,Snow,Light Snow,360,2013-04-09 18:35:00
12:55 PM,10.4,5.0,79,-9999,1.0,North,34.5,42.6,N/A,Snow,Light Snow,360,2013-04-09 18:55:00
1:15 PM,10.4,5.0,79,-9999,1.5,North,29.9,39.1,N/A,Snow,Light Snow,360,2013-04-09 19:15:00
1:35 PM,10.4,5.0,79,-9999,1.5,North,33.4,42.6,N/A,Snow,Light Snow,360,2013-04-09 19:35:00
2:15 PM,10.4,5.0,79,-9999,1.5,North,25.3,46.0,N/A,,Haze,360,2013-04-09 20:15:00
2:35 PM,10.4,5.0,79,-9999,2.0,North,26.5,38.0,N/A,,Haze,360,2013-04-09 20:35:00
2:55 PM,10.4,5.0,79,-9999,2.5,NNE,18.4,29.9,N/A,,Haze,20,2013-04-09 20:55:00
3:15 PM,10.4,5.0,79,-9999,1.0,NNE,23.0,29.9,N/A,Snow,Light Snow,20,2013-04-09 21:15:00
3:35 PM,10.4,6.8,85,-9999,0.5,North,23.0,31.1,N/A,Snow,Light Snow,360,2013-04-09 21:35:00
3:55 PM,10.4,6.8,85,-9999,0.8,North,27.6,40.3,N/A,Snow,Light Snow,360,2013-04-09 21:55:00
4:15 PM,10.4,6.8,85,-9999,0.8,North,21.9,36.8,N/A,Snow,Light Snow,360,2013-04-09 22:15:00
4:35 PM,10.4,6.8,85,-9999,0.8,NNE,25.3,33.4,N/A,Snow,Light Snow,20,2013-04-09 22:35:00
4:55 PM,10.4,6.8,85,-9999,0.8,North,21.9,33.4,N/A,Snow,Light Snow,360,2013-04-09 22:55:00
5:15 PM,10.4,6.8,85,-9999,1.2,North,23.0,31.1,N/A,Snow,Light Snow,10,2013-04-09 23:15:00
5:35 PM,10.4,6.8,85,-9999,0.8,North,20.7,31.1,N/A,Snow,Light Snow,10,2013-04-09 23:35:00
6:15 PM,10.4,8.6,92,-9999,1.5,North,21.9,28.8,N/A,Snow,Light Snow,10,2013-04-10 00:15:00
6:35 PM,12.2,8.6,85,-9999,2.0,North,18.4,27.6,N/A,Snow,Light Snow,10,2013-04-10 00:35:00
6:55 PM,10.4,8.6,92,-9999,3.0,North,17.3,26.5,N/A,Snow,Light Snow,10,2013-04-10 00:55:00
7:15 PM,10.4,8.6,92,-9999,3.0,North,15.0,25.3,N/A,Snow,Light Snow,10,2013-04-10 01:15:00
7:35 PM,10.4,8.6,92,-9999,3.0,North,17.3,27.6,N/A,Snow,Light Snow,10,2013-04-10 01:35:00
7:55 PM,10.4,8.6,92,-9999,2.0,North,16.1,29.9,N/A,Snow,Light Snow,10,2013-04-10 01:55:00
8:15 PM,10.4,8.6,92,-9999,5.0,North,13.8,25.3,N/A,,Overcast,10,2013-04-10 02:15:00
8:35 PM,10.4,8.6,92,-9999,7.0,NNE,17.3,24.2,N/A,,Overcast,20,2013-04-10 02:35:00
8:55 PM,10.4,8.6,92,-9999,5.0,NNE,10.4,21.9,N/A,,Overcast,20,2013-04-10 02:55:00
9:15 PM,10.4,8.6,92,-9999,4.0,NNE,12.7,-,N/A,,Overcast,20,2013-04-10 03:15:00
9:35 PM,10.4,8.6,92,-9999,3.0,NNE,12.7,16.1,N/A,Snow,Light Snow,20,2013-04-10 03:35:00
9:55 PM,10.4,8.6,92,-9999,2.0,NNE,9.2,-,N/A,Snow,Light Snow,20,2013-04-10 03:55:00
10:15 PM,10.4,6.8,85,-9999,2.0,North,15.0,18.4,N/A,Snow,Light Snow,360,2013-04-10 04:15:00
10:35 PM,10.4,6.8,85,-9999,2.0,North,11.5,21.9,N/A,Snow,Light Snow,10,2013-04-10 04:35:00
11:35 PM,8.6,5.0,85,-9999,3.0,NNW,6.9,-,N/A,Snow,Light Snow,330,2013-04-10 05:35:00
11:55 PM,10.4,6.8,85,-9999,10.0,NNW,9.2,-,N/A,Snow,Light Snow,340,2013-04-10 05:55:00